createdAt,value
2023-08-17T00:02:01.281Z,6.00
2023-08-17T00:04:28.073Z,2.10
2023-08-17T00:06:54.840Z,3.88
2023-08-17T00:09:21.654Z,2.13
2023-08-17T00:11:48.406Z,3.05
2023-08-17T00:14:15.191Z,2.95
2023-08-17T00:16:42.760Z,3.20
2023-08-17T00:19:11.891Z,6.32
2023-08-17T00:21:38.921Z,3.45
2023-08-17T00:24:05.890Z,2.83
2023-08-17T00:26:32.620Z,5.15
2023-08-17T00:28:59.459Z,3.25
2023-08-17T00:31:26.219Z,5.35
2023-08-17T00:33:52.933Z,2.67
2023-08-17T00:36:21.960Z,2.88
2023-08-17T00:38:48.677Z,3.70
2023-08-17T00:41:17.797Z,4.80
2023-08-17T00:43:44.552Z,6.20
2023-08-17T00:46:15.403Z,4.40
2023-08-17T00:48:43.393Z,6.32
2023-08-17T00:51:10.464Z,3.25
2023-08-17T00:53:39.410Z,3.15
2023-08-17T00:56:08.913Z,3.45
2023-08-17T00:58:35.996Z,4.32
2023-08-17T01:01:03.658Z,2.92
2023-08-17T01:03:31.389Z,3.88
2023-08-17T01:06:03.336Z,3.92
2023-08-17T01:08:33.059Z,3.47
2023-08-17T01:11:11.378Z,2.88
2023-08-17T01:14:03.658Z,2.72
2023-08-17T01:16:42.432Z,2.80
2023-08-17T01:19:11.014Z,7.22
2023-08-17T01:21:50.620Z,3.72
2023-08-17T01:24:17.401Z,2.47
2023-08-17T01:26:48.925Z,6.88
2023-08-17T01:29:16.281Z,3.50
2023-08-17T01:32:01.555Z,3.00
2023-08-17T01:34:30.529Z,2.13
2023-08-17T01:37:07.278Z,6.00
2023-08-17T01:39:40.371Z,5.85
2023-08-17T01:42:08.459Z,4.32
2023-08-17T01:44:35.634Z,3.38
2023-08-17T01:47:02.358Z,3.42
2023-08-17T01:49:29.026Z,2.65
2023-08-17T01:51:55.729Z,3.85
2023-08-17T01:54:23.088Z,3.13
2023-08-17T01:56:49.736Z,2.85
2023-08-17T01:59:18.706Z,4.40
2023-08-17T02:01:45.391Z,3.42
2023-08-17T02:04:12.142Z,4.43
2023-08-17T02:06:38.909Z,4.60
2023-08-17T02:09:08.101Z,5.28
2023-08-17T02:11:34.894Z,4.13
2023-08-17T02:14:01.593Z,5.40
2023-08-17T02:16:33.090Z,3.25
2023-08-17T02:18:59.852Z,3.08
2023-08-17T02:21:26.615Z,5.90
2023-08-17T02:23:53.397Z,4.57
2023-08-17T02:26:20.051Z,2.92
2023-08-17T02:28:49.236Z,3.78
2023-08-17T02:31:15.990Z,2.80
2023-08-17T02:33:42.931Z,3.15
2023-08-17T02:36:09.674Z,2.53
2023-08-17T02:38:36.350Z,4.28
2023-08-17T02:41:05.260Z,5.47
2023-08-17T02:43:32.002Z,6.05
2023-08-17T02:46:00.698Z,4.50
2023-08-17T02:48:27.473Z,2.60
2023-08-17T02:50:54.147Z,7.22
2023-08-17T02:53:20.941Z,2.97
2023-08-17T02:55:47.575Z,2.30
2023-08-17T02:58:14.394Z,6.22
2023-08-17T03:00:41.092Z,3.20
2023-08-17T03:03:07.841Z,4.20
2023-08-17T03:05:35.210Z,3.03
2023-08-17T03:08:02.040Z,3.65
2023-08-17T03:10:28.740Z,3.72
2023-08-17T03:12:55.498Z,2.72
2023-08-17T03:15:22.431Z,2.85
2023-08-17T03:17:49.389Z,3.72
2023-08-17T03:20:18.377Z,3.65
2023-08-17T03:22:45.062Z,3.28
2023-08-17T03:25:11.781Z,4.53
2023-08-17T03:27:38.578Z,3.72
2023-08-17T03:30:06.401Z,3.40
2023-08-17T03:32:33.159Z,3.75
2023-08-17T03:34:59.869Z,4.68
2023-08-17T03:37:26.869Z,2.83
2023-08-17T03:39:53.733Z,3.85
2023-08-17T03:42:20.426Z,4.78
2023-08-17T03:44:47.255Z,3.47
2023-08-17T03:47:13.972Z,4.88
2023-08-17T03:49:40.727Z,5.35
2023-08-17T03:52:09.990Z,3.20
2023-08-17T03:54:39.658Z,6.60
2023-08-17T03:57:06.345Z,5.22
2023-08-17T03:59:35.333Z,4.80
2023-08-17T04:02:02.104Z,4.43
2023-08-17T04:04:31.209Z,6.28
2023-08-17T04:07:00.201Z,3.78
2023-08-17T04:09:29.124Z,2.90
2023-08-17T04:11:58.569Z,6.40
2023-08-17T04:14:25.200Z,5.40
2023-08-17T04:16:52.391Z,9.70
2023-08-17T04:19:21.800Z,4.40
2023-08-17T04:21:48.520Z,5.78
2023-08-17T04:24:15.192Z,6.82
2023-08-17T04:26:41.872Z,5.95
2023-08-17T04:29:08.528Z,7.07
2023-08-17T04:31:35.259Z,3.17
2023-08-17T04:34:02.075Z,9.13
2023-08-17T04:36:31.086Z,4.97
2023-08-17T04:38:57.813Z,5.22
2023-08-17T04:41:24.542Z,6.97
2023-08-17T04:43:51.257Z,2.78
2023-08-17T04:46:18.076Z,5.20
2023-08-17T04:48:44.770Z,8.50
2023-08-17T04:51:11.446Z,4.68
2023-08-17T04:53:40.376Z,4.50
2023-08-17T04:56:07.091Z,6.00
2023-08-17T04:58:33.776Z,5.13
2023-08-17T05:01:00.625Z,4.57
2023-08-17T05:03:33.822Z,4.82
2023-08-17T05:08:27.793Z,4.93
2023-08-17T05:10:56.794Z,5.63
2023-08-17T05:13:28.043Z,6.20
2023-08-17T05:15:54.864Z,7.88
2023-08-17T05:18:24.282Z,4.18
2023-08-17T05:20:53.271Z,4.70
2023-08-17T05:23:22.185Z,4.55
2023-08-17T05:25:49.158Z,7.53
2023-08-17T05:28:15.870Z,3.95
2023-08-17T05:30:42.625Z,5.43
2023-08-17T05:33:09.375Z,5.97
2023-08-17T05:35:36.233Z,4.90
2023-08-17T05:38:03.477Z,9.20
2023-08-17T05:40:38.283Z,4.95
2023-08-17T05:43:05.013Z,6.22
2023-08-17T05:45:37.783Z,5.78
2023-08-17T05:48:05.098Z,8.57
2023-08-17T05:50:34.101Z,5.53
2023-08-17T05:53:00.870Z,6.18
2023-08-17T05:55:27.523Z,7.18
2023-08-17T05:57:54.179Z,6.40
2023-08-17T06:00:20.860Z,8.38
2023-08-17T06:02:51.086Z,7.47
2023-08-17T06:05:18.574Z,6.75
2023-08-17T06:07:45.267Z,6.63
2023-08-17T06:10:12.889Z,9.98
2023-08-17T06:12:39.631Z,9.25
2023-08-17T06:15:09.112Z,7.13
2023-08-17T06:17:35.945Z,7.10
2023-08-17T06:20:05.178Z,7.00
2023-08-17T06:22:31.938Z,6.93
2023-08-17T06:24:58.656Z,7.53
2023-08-17T06:27:28.002Z,8.70
2023-08-17T06:29:54.817Z,12.20
2023-08-17T06:32:21.496Z,6.60
2023-08-17T06:34:48.291Z,6.53
2023-08-17T06:37:14.965Z,9.63
2023-08-17T06:39:41.960Z,11.80
2023-08-17T06:42:11.204Z,8.82
2023-08-17T06:44:38.564Z,6.70
2023-08-17T06:47:05.410Z,7.72
2023-08-17T06:49:32.264Z,8.90
2023-08-17T06:51:59.174Z,14.43
2023-08-17T06:54:26.038Z,10.50
2023-08-17T06:56:52.842Z,11.25
2023-08-17T06:59:21.843Z,9.43
2023-08-17T07:01:48.660Z,12.82
2023-08-17T07:04:15.498Z,14.35
2023-08-17T07:06:42.416Z,12.85
2023-08-17T07:09:09.198Z,13.88
2023-08-17T07:11:36.000Z,15.15
2023-08-17T07:14:02.741Z,16.90
2023-08-17T07:16:29.555Z,23.27
2023-08-17T07:18:58.771Z,17.55
2023-08-17T07:21:25.631Z,14.98
2023-08-17T07:23:52.577Z,14.65
2023-08-17T07:26:21.809Z,17.27
2023-08-17T07:28:48.679Z,18.08
2023-08-17T07:31:15.757Z,16.10
2023-08-17T07:33:42.497Z,17.83
2023-08-17T07:36:09.186Z,16.48
2023-08-17T07:38:35.908Z,17.85
2023-08-17T07:41:03.235Z,14.68
2023-08-17T07:43:29.972Z,17.85
2023-08-17T07:45:58.043Z,17.45
2023-08-17T07:48:28.009Z,18.15
2023-08-17T07:50:54.815Z,19.08
2023-08-17T07:53:21.677Z,15.75
2023-08-17T07:55:49.714Z,16.50
2023-08-17T07:58:17.589Z,20.90
2023-08-17T08:00:44.407Z,20.10
2023-08-17T08:03:11.255Z,17.73
2023-08-17T08:05:38.356Z,18.05
2023-08-17T08:08:05.538Z,21.15
2023-08-17T08:10:32.235Z,19.52
2023-08-17T08:13:01.489Z,20.35
2023-08-17T08:15:28.346Z,20.73
2023-08-17T08:17:55.122Z,21.30
2023-08-17T08:20:22.670Z,19.48
2023-08-17T08:22:49.459Z,23.02
2023-08-17T08:25:16.269Z,20.63
2023-08-17T08:27:43.318Z,17.33
2023-08-17T08:30:10.548Z,17.38
2023-08-17T08:32:37.304Z,19.08
2023-08-17T08:35:06.839Z,17.65
2023-08-17T08:37:33.923Z,19.50
2023-08-17T08:40:01.273Z,16.67
2023-08-17T08:42:28.301Z,15.15
2023-08-17T08:44:57.435Z,16.45
2023-08-17T08:47:26.806Z,22.38
2023-08-17T08:50:05.895Z,16.50
2023-08-17T08:52:41.667Z,15.20
2023-08-17T08:55:13.428Z,19.30
2023-08-17T08:57:41.034Z,16.50
2023-08-17T09:00:08.905Z,13.32
2023-08-17T09:02:35.958Z,13.80
2023-08-17T09:05:13.142Z,14.75
2023-08-17T09:07:40.761Z,13.88
2023-08-17T09:10:08.001Z,10.43
2023-08-17T09:12:40.330Z,11.70
2023-08-17T09:15:08.829Z,12.82
2023-08-17T09:17:35.870Z,9.85
2023-08-17T09:20:04.307Z,9.32
2023-08-17T09:22:44.542Z,10.23
2023-08-17T09:25:12.123Z,9.77
2023-08-17T09:27:39.867Z,10.02
2023-08-17T09:30:09.699Z,9.73
2023-08-17T09:32:36.698Z,7.70
2023-08-17T09:35:05.483Z,11.88
2023-08-17T09:37:33.214Z,7.82
2023-08-17T09:40:00.266Z,11.10
2023-08-17T09:42:28.585Z,8.02
2023-08-17T09:44:56.812Z,7.43
2023-08-17T09:47:26.197Z,6.72
2023-08-17T09:49:58.710Z,9.82
2023-08-17T09:52:28.896Z,6.38
2023-08-17T09:54:56.549Z,6.40
2023-08-17T09:57:26.555Z,8.63
2023-08-17T09:59:56.553Z,7.50
2023-08-17T10:02:25.449Z,6.20
2023-08-17T10:04:59.443Z,6.03
2023-08-17T10:10:11.542Z,6.22
2023-08-17T10:12:42.593Z,3.97
2023-08-17T10:17:50.936Z,9.30
2023-08-17T10:20:19.775Z,7.20
2023-08-17T10:23:15.520Z,5.05
2023-08-17T10:25:43.436Z,11.70
2023-08-17T10:28:11.732Z,8.13
2023-08-17T10:30:39.212Z,7.50
2023-08-17T10:33:07.739Z,5.85
2023-08-17T10:35:36.821Z,5.03
2023-08-17T10:38:10.753Z,5.15
2023-08-17T10:40:42.619Z,7.53
2023-08-17T10:43:09.505Z,4.15
2023-08-17T10:45:39.382Z,3.30
2023-08-17T10:48:09.656Z,6.63
2023-08-17T10:50:42.721Z,7.05
2023-08-17T10:53:14.235Z,5.00
2023-08-17T10:55:45.285Z,7.60
2023-08-17T10:58:16.102Z,4.63
2023-08-17T11:00:45.026Z,3.58
2023-08-17T11:03:19.597Z,5.85
2023-08-17T11:05:50.789Z,6.43
2023-08-17T11:08:43.431Z,4.00
2023-08-17T11:11:15.188Z,5.20
2023-08-17T11:13:46.822Z,5.03
2023-08-17T11:16:18.465Z,6.55
2023-08-17T11:18:46.217Z,7.93
2023-08-17T11:23:45.996Z,3.60
2023-08-17T11:26:15.036Z,4.07
2023-08-17T11:28:46.034Z,6.28
2023-08-17T11:31:15.013Z,5.50
2023-08-17T11:33:44.307Z,7.78
2023-08-17T11:36:13.996Z,6.97
2023-08-17T11:38:43.296Z,7.53
2023-08-17T11:41:11.045Z,5.55
2023-08-17T11:43:40.952Z,6.28
2023-08-17T11:46:07.930Z,7.03
2023-08-17T11:48:37.507Z,6.38
2023-08-17T11:51:05.399Z,4.93
2023-08-17T11:53:36.978Z,6.43
2023-08-17T11:56:08.031Z,4.50
2023-08-17T11:58:47.048Z,3.78
2023-08-17T12:01:17.903Z,6.13
2023-08-17T12:03:45.736Z,4.35
2023-08-17T12:06:15.775Z,7.57
2023-08-17T12:08:47.457Z,8.00
2023-08-17T12:11:16.535Z,4.10
2023-08-17T12:13:43.821Z,7.03
2023-08-17T12:16:16.196Z,6.15
2023-08-17T12:18:54.518Z,4.67
2023-08-17T12:21:22.893Z,5.25
2023-08-17T12:23:50.161Z,4.43
2023-08-17T12:26:21.016Z,6.65
2023-08-17T12:28:50.644Z,5.60
2023-08-17T12:31:25.350Z,3.95
2023-08-17T12:33:52.660Z,6.40
2023-08-17T12:36:22.635Z,5.22
2023-08-17T12:38:52.358Z,5.82
2023-08-17T12:41:19.554Z,6.93
2023-08-17T12:43:49.077Z,5.40
2023-08-17T12:46:15.922Z,7.65
2023-08-17T12:48:45.688Z,5.78
2023-08-17T12:51:14.786Z,4.95
2023-08-17T12:53:43.158Z,6.55
2023-08-17T12:56:10.074Z,5.63
2023-08-17T12:58:36.867Z,5.10
2023-08-17T13:01:08.226Z,6.85
2023-08-17T13:03:35.102Z,6.85
2023-08-17T13:06:01.939Z,5.38
2023-08-17T13:08:28.864Z,5.85
2023-08-17T13:10:55.726Z,5.75
2023-08-17T13:13:22.545Z,8.73
2023-08-17T13:15:49.331Z,6.30
2023-08-17T13:18:16.644Z,3.33
2023-08-17T13:20:43.496Z,6.57
2023-08-17T13:23:11.508Z,4.82
2023-08-17T13:25:38.712Z,4.03
2023-08-17T13:28:08.529Z,4.30
2023-08-17T13:30:35.415Z,5.20
2023-08-17T13:33:02.246Z,5.03
2023-08-17T13:35:32.156Z,5.07
2023-08-17T13:37:59.176Z,5.80
2023-08-17T13:40:26.175Z,3.83
2023-08-17T13:42:52.923Z,4.90
2023-08-17T13:45:19.693Z,5.75
2023-08-17T13:47:51.479Z,4.20
2023-08-17T13:50:20.921Z,5.68
2023-08-17T13:52:49.954Z,4.30
2023-08-17T13:55:16.946Z,3.75
2023-08-17T13:57:43.709Z,4.25
2023-08-17T14:00:11.227Z,5.10
2023-08-17T14:02:40.763Z,5.90
2023-08-17T14:05:07.957Z,3.92
2023-08-17T14:07:34.778Z,4.28
2023-08-17T14:10:07.700Z,4.90
2023-08-17T14:12:45.580Z,4.00
2023-08-17T14:15:12.327Z,6.10
2023-08-17T14:17:39.137Z,6.22
2023-08-17T14:20:06.258Z,4.47
2023-08-17T14:22:33.407Z,4.75
2023-08-17T14:25:00.604Z,4.78
2023-08-17T14:27:27.505Z,5.10
2023-08-17T14:29:54.562Z,4.93
2023-08-17T14:32:23.454Z,4.80
2023-08-17T14:34:50.169Z,4.35
2023-08-17T14:39:51.283Z,6.68
2023-08-17T14:42:18.027Z,5.55
2023-08-17T14:44:44.783Z,6.05
2023-08-17T14:47:12.695Z,4.32
2023-08-17T14:49:39.644Z,5.93
2023-08-17T14:52:06.708Z,7.53
2023-08-17T14:54:33.627Z,4.35
2023-08-17T14:57:00.391Z,3.67
2023-08-17T14:59:29.559Z,4.90
2023-08-17T15:01:57.661Z,6.03
2023-08-17T15:04:26.205Z,4.53
2023-08-17T15:06:53.267Z,4.93
2023-08-17T15:09:20.524Z,7.22
2023-08-17T15:11:47.332Z,5.90
2023-08-17T15:14:16.252Z,5.65
2023-08-17T15:16:43.165Z,7.15
2023-08-17T15:19:12.065Z,5.20
2023-08-17T15:21:41.252Z,6.55
2023-08-17T15:24:07.999Z,5.18
2023-08-17T15:26:36.927Z,4.85
2023-08-17T15:29:05.889Z,5.10
2023-08-17T15:31:32.723Z,5.57
2023-08-17T15:33:59.579Z,6.47
2023-08-17T15:36:27.751Z,5.35
2023-08-17T15:38:54.523Z,6.28
2023-08-17T15:41:23.823Z,4.45
2023-08-17T15:43:53.409Z,6.30
2023-08-17T15:46:20.227Z,5.45
2023-08-17T15:48:47.013Z,4.68
2023-08-17T15:51:13.822Z,4.97
2023-08-17T15:53:44.412Z,5.70
2023-08-17T15:56:11.618Z,3.97
2023-08-17T15:58:38.513Z,3.47
2023-08-17T16:01:05.232Z,4.63
2023-08-17T16:03:34.381Z,4.72
2023-08-17T16:06:01.341Z,4.07
2023-08-17T16:08:41.404Z,5.47
2023-08-17T16:11:14.800Z,5.93
2023-08-17T16:13:47.082Z,8.02
2023-08-17T16:16:14.365Z,3.53
2023-08-17T16:18:41.245Z,7.45
2023-08-17T16:23:40.745Z,5.15
2023-08-17T16:26:07.584Z,6.75
2023-08-17T16:28:34.450Z,5.25
2023-08-17T16:31:04.367Z,4.90
2023-08-17T16:33:33.707Z,4.40
2023-08-17T16:36:00.684Z,4.85
2023-08-17T16:38:32.437Z,4.45
2023-08-17T16:40:59.324Z,3.80
2023-08-17T16:43:28.231Z,6.95
2023-08-17T16:45:54.966Z,5.13
2023-08-17T16:48:24.732Z,6.35
2023-08-17T16:50:54.116Z,6.70
2023-08-17T16:53:21.688Z,6.30
2023-08-17T16:55:55.038Z,4.60
2023-08-17T16:58:24.796Z,7.35
2023-08-17T17:00:51.543Z,4.78
2023-08-17T17:03:18.289Z,8.10
2023-08-17T17:05:45.103Z,7.28
2023-08-17T17:08:11.800Z,3.92
2023-08-17T17:10:38.564Z,4.90
2023-08-17T17:13:05.371Z,4.63
2023-08-17T17:15:34.689Z,5.38
2023-08-17T17:18:01.545Z,4.47
2023-08-17T17:20:28.277Z,3.90
2023-08-17T17:22:57.412Z,4.68
2023-08-17T17:25:24.196Z,4.80
2023-08-17T17:27:50.884Z,5.57
2023-08-17T17:30:20.119Z,6.70
2023-08-17T17:32:46.925Z,7.13
2023-08-17T17:35:13.680Z,3.28
2023-08-17T17:37:40.596Z,6.18
2023-08-17T17:40:07.875Z,4.70
2023-08-17T17:42:35.449Z,4.57
2023-08-17T17:45:02.226Z,3.63
2023-08-17T17:47:29.161Z,6.40
2023-08-17T17:49:55.968Z,4.07
2023-08-17T17:52:26.831Z,4.35
2023-08-17T17:54:55.791Z,4.45
2023-08-17T17:57:22.507Z,6.43
2023-08-17T17:59:51.350Z,8.35
2023-08-17T18:02:25.740Z,4.65
2023-08-17T18:04:52.881Z,5.93
2023-08-17T18:07:21.930Z,7.47
2023-08-17T18:09:48.801Z,6.22
2023-08-17T18:12:15.555Z,6.70
2023-08-17T18:14:42.454Z,5.15
2023-08-17T18:17:09.187Z,9.55
2023-08-17T18:19:36.023Z,7.50
2023-08-17T18:22:02.772Z,7.10
2023-08-17T18:24:29.481Z,5.63
2023-08-17T18:26:56.173Z,5.85
2023-08-17T18:29:25.413Z,6.28
2023-08-17T18:31:52.138Z,4.18
2023-08-17T18:34:18.877Z,6.32
2023-08-17T18:36:47.919Z,7.65
2023-08-17T18:39:14.768Z,7.13
2023-08-17T18:41:41.615Z,8.07
2023-08-17T18:44:10.564Z,4.93
2023-08-17T18:46:39.700Z,8.02
2023-08-17T18:49:08.137Z,7.15
2023-08-17T18:51:34.853Z,7.28
2023-08-17T18:54:04.338Z,12.07
2023-08-17T18:56:31.034Z,6.65
2023-08-17T18:58:59.178Z,4.57
2023-08-17T19:01:26.264Z,4.32
2023-08-17T19:03:55.305Z,5.03
2023-08-17T19:06:22.459Z,6.00
2023-08-17T19:08:49.198Z,5.72
2023-08-17T19:11:16.209Z,5.38
2023-08-17T19:13:42.901Z,6.50
2023-08-17T19:16:11.913Z,4.95
2023-08-17T19:18:38.619Z,8.68
2023-08-17T19:21:08.024Z,6.00
2023-08-17T19:23:35.831Z,5.32
2023-08-17T19:26:02.701Z,5.18
2023-08-17T19:28:31.937Z,6.30
2023-08-17T19:30:58.596Z,7.60
2023-08-17T19:33:27.872Z,4.65
2023-08-17T19:35:54.841Z,5.20
2023-08-17T19:38:22.987Z,7.03
2023-08-17T19:40:52.044Z,5.78
2023-08-17T19:43:19.039Z,5.78
2023-08-17T19:45:46.120Z,5.85
2023-08-17T19:48:15.440Z,5.32
2023-08-17T19:50:42.330Z,4.28
2023-08-17T19:53:11.573Z,7.68
2023-08-17T19:55:38.226Z,6.57
2023-08-17T19:58:05.557Z,4.97
2023-08-17T20:00:32.523Z,6.00
2023-08-17T20:02:59.563Z,6.68
2023-08-17T20:05:28.675Z,5.68
2023-08-17T20:07:56.022Z,5.35
2023-08-17T20:10:22.697Z,5.32
2023-08-17T20:12:49.547Z,8.13
2023-08-17T20:15:18.538Z,5.65
2023-08-17T20:17:45.332Z,5.78
2023-08-17T20:20:16.513Z,4.57
2023-08-17T20:22:44.380Z,7.88
2023-08-17T20:25:13.726Z,8.20
2023-08-17T20:27:43.858Z,6.13
2023-08-17T20:30:16.364Z,5.68
2023-08-17T20:32:43.087Z,5.10
2023-08-17T20:35:10.085Z,5.72
2023-08-17T20:37:36.791Z,8.63
2023-08-17T20:40:07.158Z,7.47
2023-08-17T20:42:33.844Z,7.30
2023-08-17T20:45:00.641Z,8.27
2023-08-17T20:47:27.698Z,7.82
2023-08-17T20:49:59.340Z,9.25
2023-08-17T20:52:26.746Z,8.00
2023-08-17T20:54:53.519Z,5.88
2023-08-17T20:57:20.409Z,7.35
2023-08-17T20:59:47.180Z,6.40
2023-08-17T21:02:14.011Z,7.55
2023-08-17T21:04:40.770Z,4.78
2023-08-17T21:07:07.446Z,7.55
2023-08-17T21:09:34.448Z,4.47
2023-08-17T21:12:02.926Z,5.65
2023-08-17T21:14:29.744Z,8.60
2023-08-17T21:16:56.909Z,6.00
2023-08-17T21:19:23.738Z,6.15
2023-08-17T21:21:50.494Z,8.88
2023-08-17T21:24:19.747Z,7.88
2023-08-17T21:26:46.412Z,6.03
2023-08-17T21:29:13.076Z,8.00
2023-08-17T21:31:39.857Z,6.22
2023-08-17T21:34:06.589Z,9.00
2023-08-17T21:36:33.262Z,5.10
2023-08-17T21:39:00.079Z,6.88
2023-08-17T21:41:27.196Z,4.95
2023-08-17T21:43:54.369Z,6.85
2023-08-17T21:46:21.186Z,5.43
2023-08-17T21:48:50.567Z,6.30
2023-08-17T21:51:17.382Z,5.93
2023-08-17T21:53:44.159Z,8.50
2023-08-17T21:56:10.826Z,6.63
2023-08-17T21:58:37.548Z,6.00
2023-08-17T22:01:05.067Z,7.53
2023-08-17T22:03:34.134Z,6.10
2023-08-17T22:06:06.935Z,8.48
2023-08-17T22:08:39.398Z,5.90
2023-08-17T22:11:06.199Z,4.93
2023-08-17T22:13:33.008Z,7.88
2023-08-17T22:16:02.079Z,8.38
2023-08-17T22:18:29.074Z,9.63
2023-08-17T22:21:00.481Z,6.45
2023-08-17T22:23:27.192Z,7.40
2023-08-17T22:25:53.933Z,8.55
2023-08-17T22:28:20.657Z,7.53
2023-08-17T22:30:47.433Z,5.55
2023-08-17T22:33:14.250Z,9.43
2023-08-17T22:35:40.887Z,7.40
2023-08-17T22:38:07.566Z,8.30
2023-08-17T22:40:34.783Z,8.10
2023-08-17T22:43:01.480Z,7.18
2023-08-17T22:45:28.234Z,5.78
2023-08-17T22:47:55.063Z,8.90
2023-08-17T22:50:21.849Z,7.28
2023-08-17T22:52:54.856Z,9.13
2023-08-17T22:55:21.681Z,5.53
2023-08-17T22:57:48.435Z,8.15
2023-08-17T23:00:19.583Z,7.97
2023-08-17T23:02:46.423Z,7.50
2023-08-17T23:05:13.281Z,8.20
2023-08-17T23:07:40.077Z,9.38
2023-08-17T23:10:07.556Z,9.52
2023-08-17T23:12:34.297Z,8.13
2023-08-17T23:15:01.061Z,8.30
2023-08-17T23:17:30.421Z,8.07
2023-08-17T23:19:57.385Z,8.60
2023-08-17T23:22:24.077Z,10.10
2023-08-17T23:24:50.744Z,7.65
2023-08-17T23:27:17.452Z,7.93
2023-08-17T23:29:44.145Z,7.65
2023-08-17T23:32:25.388Z,7.18
2023-08-17T23:34:54.978Z,9.63
2023-08-17T23:37:21.810Z,8.32
2023-08-17T23:39:48.578Z,7.28
2023-08-17T23:42:15.409Z,12.35
2023-08-17T23:44:44.283Z,9.48
2023-08-17T23:47:11.095Z,6.90
2023-08-17T23:49:39.846Z,6.95
2023-08-17T23:52:07.750Z,9.30
2023-08-17T23:54:34.497Z,11.20
2023-08-17T23:57:01.191Z,7.15
2023-08-17T23:59:27.860Z,7.18
